• Join FlightAware (Why Join?)
  • Login
  • US Flag 
09:29PM EST


 

Airport Tracker/Info


-or-


 

Live Flight TrackerFlight Track Log ✈ SWA511 ✈ 10-Nov-2013 ✈ KOAK - KLAX

Flight Track Log - Related Links

Times and Time Zones

All times are in EST time to prevent confusion due to time zone crossing. See the SWA511 flight status page for this flight to view local times or setup timezone preferences in your user account.

Time Position Orientation Groundspeed Altitude Reporting Facility
EST Latitude Longitude Course Direction KTS MPH feet Rate Location/Type
04:17PM 37.7333 -122.2500 302° West 173 199 1,300  Level Northern Cal TRACON
04:18PM 37.7667 -122.3167 302° West 233 268 3,200 2,220 Climbing Northern Cal TRACON
04:19PM 37.7667 -122.4000 270° West 252 290 5,800 2,460 Climbing Northern Cal TRACON
04:19PM 37.7422 -122.4136 204° Southwest 234 269 7,000 2,640 Climbing Oakland Center
04:20PM 37.6772 -122.3822 159° South 261 300 9,900 2,280 Climbing Oakland Center
04:21PM 37.6217 -122.3097 134° Southeast 293 337 11,700 2,100 Climbing Oakland Center
04:22PM 37.5536 -122.2278 136° Southeast 335 386 14,300 2,460 Climbing Oakland Center
04:23PM 37.4853 -122.1428 135° Southeast 346 398 16,800 2,340 Climbing Oakland Center
04:25PM 37.4119 -122.0544 136° Southeast 362 417 19,200 2,220 Climbing Oakland Center
04:26PM 37.3386 -121.9647 136° Southeast 368 423 21,400 1,800 Climbing Oakland Center
04:27PM 37.2589 -121.8694 136° Southeast 394 453 22,900 1,620 Climbing Oakland Center
04:28PM 37.1708 -121.7639 136° Southeast 406 467 24,800 1,620 Climbing Oakland Center
04:29PM 37.0731 -121.6489 137° Southeast 430 495 26,300 1,320 Climbing Oakland Center
04:30PM 36.9836 -121.5453 137° Southeast 440 506 27,600 1,260 Climbing Oakland Center
04:31PM 36.8947 -121.4328 135° Southeast 454 522 28,900 1,500 Climbing Oakland Center
04:32PM 36.8050 -121.3283 137° Southeast 453 521 30,700 1,560 Climbing Oakland Center
04:33PM 36.7147 -121.2258 138° Southeast 442 509 32,100 1,380 Climbing Oakland Center
04:34PM 36.6097 -121.1008 136° Southeast 437 503 33,600 1,080 Climbing Oakland Center
04:35PM 36.5211 -120.9961 136° Southeast 440 506 34,400 660 Climbing Oakland Center
04:36PM 36.4339 -120.8903 136° Southeast 440 506 35,000 240 Climbing Oakland Center
04:37PM 36.3456 -120.7872 137° Southeast 437 503 35,000  Level Oakland Center
04:38PM 36.2550 -120.6806 136° Southeast 447 514 35,000  Level Oakland Center
04:39PM 36.1628 -120.5747 137° Southeast 451 519 35,000  Level Oakland Center
04:40PM 36.0708 -120.4683 137° Southeast 452 520 35,000  Level Oakland Center
04:41PM 35.9800 -120.3611 136° Southeast 452 520 35,000  Level Oakland Center
04:42PM 35.8706 -120.2353 137° Southeast 449 517 35,000  Level Oakland Center
04:43PM 35.7806 -120.1325 137° Southeast 442 509 35,000  Level Oakland Center
04:44PM 35.6914 -120.0294 137° Southeast 437 503 35,000  Level Oakland Center
04:45PM 35.5956 -119.9336 141° Southeast 436 502 35,000  Level Los Angeles Center
04:46PM 35.4933 -119.8472 145° Southeast 440 506 35,000  Level Los Angeles Center
04:47PM 35.3903 -119.7575 145° Southeast 448 516 35,000  Level Los Angeles Center
04:48PM 35.2861 -119.6675 145° Southeast 453 521 35,000  Level Los Angeles Center
04:49PM 35.1831 -119.5786 145° Southeast 454 522 35,000 -60 Level Los Angeles Center
04:50PM 35.0597 -119.4742 145° Southeast 449 517 34,900 -540 Descending Los Angeles Center
04:51PM 34.9581 -119.3864 145° Southeast 447 514 33,900 -1,020 Descending Los Angeles Center
04:52PM 34.8561 -119.2997 145° Southeast 447 514 32,900 -2,040 Descending Los Angeles Center
04:53PM 34.7539 -119.2125 145° Southeast 448 516 29,700 -3,960 Descending Los Angeles Center
04:54PM 34.6356 -119.1144 146° Southeast 452 520 24,800 -3,780 Descending Los Angeles Center
04:55PM 34.5492 -119.0403 145° Southeast 431 496 21,900 -3,060 Descending Los Angeles Center
04:56PM 34.4375 -118.9494 146° Southeast 402 463 18,500 -2,760 Descending Los Angeles Center
04:57PM 34.3500 -118.8803 147° Southeast 373 429 16,300 -2,280 Descending Los Angeles Center
04:59PM 34.2525 -118.8436 163° South 363 418 13,900 -2,280 Descending Los Angeles Center
05:00PM 34.1594 -118.8092 163° South 352 405 11,700 -1,920 Descending Los Angeles Center
05:01PM 34.0578 -118.7694 162° South 334 384 10,000 -840 Descending Los Angeles Center
05:02PM 34.0319 -118.6869 111° Southeast 273 314 10,000 -420 Level Los Angeles Center
05:03PM 34.0244 -118.6039 96° East 252 290 9,200 -1,020 Descending Los Angeles Center
05:04PM 34.0158 -118.5197 97° East 237 273 8,000 -1,080 Descending Los Angeles Center
05:05PM 34.0131 -118.4458 93° East 227 261 7,000 -1,080 Descending Los Angeles Center
05:06PM 34.0217 -118.3683 82° East 232 267 5,800 -1,080 Descending Los Angeles Center
05:07PM 34.0292 -118.2944 83° East 228 262 4,800 -1,020 Descending Los Angeles Center
05:08PM 34.0289 -118.2306 90° East 217 250 3,800 -1,140 Descending Los Angeles Center
05:09PM 33.9822 -118.2564 205° Southwest 193 222 2,500 -1,020 Descending Los Angeles Center
05:10PM 33.9631 -118.3114 247° West 185 213 1,700 -780 Descending Los Angeles Center
05:11PM 33.9569 -118.3586 261° West 162 186 900 -720 Descending Los Angeles Center
05:12PM 33.9531 -118.3972 263° West 134 154 300 -600 Descending Los Angeles Center
05:14PM 33.9333 -118.4000 228° Southwest  Level FlightAware Approximate
05:21PM 33.9425 -118.4081 228° Southwest  Level Estimated